sensor_id;sensor_type;location;lat;lon;timestamp;P1;durP1;ratioP1;P2;durP2;ratioP2
13805;SDS011;6974;53.606;9.872;2022-12-01T00:00:51;67.70;;;46.63;;
13805;SDS011;6974;53.606;9.872;2022-12-01T00:03:21;69.33;;;47.90;;
13805;SDS011;6974;53.606;9.872;2022-12-01T00:05:56;73.47;;;48.90;;
13805;SDS011;6974;53.606;9.872;2022-12-01T00:08:24;68.77;;;47.03;;
13805;SDS011;6974;53.606;9.872;2022-12-01T00:10:51;67.03;;;46.57;;
13805;SDS011;6974;53.606;9.872;2022-12-01T00:13:18;67.97;;;46.93;;
13805;SDS011;6974;53.606;9.872;2022-12-01T00:15:45;70.20;;;47.93;;
13805;SDS011;6974;53.606;9.872;2022-12-01T00:18:13;71.80;;;48.33;;
13805;SDS011;6974;53.606;9.872;2022-12-01T00:20:42;68.50;;;45.97;;
13805;SDS011;6974;53.606;9.872;2022-12-01T00:23:09;63.13;;;44.33;;
13805;SDS011;6974;53.606;9.872;2022-12-01T00:25:36;70.47;;;46.50;;
13805;SDS011;6974;53.606;9.872;2022-12-01T00:28:04;70.03;;;47.33;;
13805;SDS011;6974;53.606;9.872;2022-12-01T00:30:31;67.87;;;47.40;;
13805;SDS011;6974;53.606;9.872;2022-12-01T00:32:58;68.27;;;47.03;;
13805;SDS011;6974;53.606;9.872;2022-12-01T00:35:25;69.73;;;47.23;;
13805;SDS011;6974;53.606;9.872;2022-12-01T00:37:54;68.67;;;46.03;;
13805;SDS011;6974;53.606;9.872;2022-12-01T00:40:21;70.37;;;47.03;;
13805;SDS011;6974;53.606;9.872;2022-12-01T00:42:48;64.77;;;46.10;;
13805;SDS011;6974;53.606;9.872;2022-12-01T00:45:16;70.33;;;46.23;;
13805;SDS011;6974;53.606;9.872;2022-12-01T00:47:43;65.70;;;45.87;;
13805;SDS011;6974;53.606;9.872;2022-12-01T00:50:10;70.33;;;46.17;;
13805;SDS011;6974;53.606;9.872;2022-12-01T00:52:37;65.63;;;45.63;;
13805;SDS011;6974;53.606;9.872;2022-12-01T00:55:07;64.23;;;44.93;;
13805;SDS011;6974;53.606;9.872;2022-12-01T00:57:34;69.77;;;46.27;;
13805;SDS011;6974;53.606;9.872;2022-12-01T01:00:02;65.73;;;45.90;;
13805;SDS011;6974;53.606;9.872;2022-12-01T01:02:30;68.57;;;46.50;;
13805;SDS011;6974;53.606;9.872;2022-12-01T01:04:57;68.00;;;46.73;;
13805;SDS011;6974;53.606;9.872;2022-12-01T01:07:25;68.27;;;47.80;;
13805;SDS011;6974;53.606;9.872;2022-12-01T01:09:54;71.70;;;48.03;;
13805;SDS011;6974;53.606;9.872;2022-12-01T01:12:23;71.60;;;47.37;;
13805;SDS011;6974;53.606;9.872;2022-12-01T01:14:50;70.03;;;47.60;;
13805;SDS011;6974;53.606;9.872;2022-12-01T01:17:17;71.10;;;46.97;;
13805;SDS011;6974;53.606;9.872;2022-12-01T01:19:45;67.80;;;47.33;;
13805;SDS011;6974;53.606;9.872;2022-12-01T01:22:12;69.40;;;47.13;;
13805;SDS011;6974;53.606;9.872;2022-12-01T01:24:39;71.20;;;46.13;;
13805;SDS011;6974;53.606;9.872;2022-12-01T01:27:06;67.17;;;45.63;;
13805;SDS011;6974;53.606;9.872;2022-12-01T01:29:34;64.80;;;44.43;;
13805;SDS011;6974;53.606;9.872;2022-12-01T01:32:02;71.33;;;46.00;;
13805;SDS011;6974;53.606;9.872;2022-12-01T01:34:29;69.93;;;46.73;;
13805;SDS011;6974;53.606;9.872;2022-12-01T01:36:57;68.77;;;47.43;;
13805;SDS011;6974;53.606;9.872;2022-12-01T01:39:24;71.57;;;47.40;;
13805;SDS011;6974;53.606;9.872;2022-12-01T01:41:52;66.53;;;45.60;;
13805;SDS011;6974;53.606;9.872;2022-12-01T01:47:22;67.20;;;45.23;;
13805;SDS011;6974;53.606;9.872;2022-12-01T01:49:53;67.50;;;45.47;;
13805;SDS011;6974;53.606;9.872;2022-12-01T01:52:22;68.00;;;45.67;;
13805;SDS011;6974;53.606;9.872;2022-12-01T01:54:50;71.13;;;47.60;;
13805;SDS011;6974;53.606;9.872;2022-12-01T01:57:22;65.87;;;45.63;;
13805;SDS011;6974;53.606;9.872;2022-12-01T01:59:52;67.47;;;46.33;;
13805;SDS011;6974;53.606;9.872;2022-12-01T02:02:24;68.20;;;45.77;;
13805;SDS011;6974;53.606;9.872;2022-12-01T02:04:53;72.47;;;46.73;;
13805;SDS011;6974;53.606;9.872;2022-12-01T02:07:24;70.67;;;46.40;;
13805;SDS011;6974;53.606;9.872;2022-12-01T02:09:51;65.53;;;45.37;;
13805;SDS011;6974;53.606;9.872;2022-12-01T02:15:29;69.07;;;45.90;;
13805;SDS011;6974;53.606;9.872;2022-12-01T02:18:08;70.33;;;45.57;;
13805;SDS011;6974;53.606;9.872;2022-12-01T02:21:01;65.17;;;45.63;;
13805;SDS011;6974;53.606;9.872;2022-12-01T02:24:06;68.50;;;46.27;;
13805;SDS011;6974;53.606;9.872;2022-12-01T02:26:54;66.47;;;45.10;;
13805;SDS011;6974;53.606;9.872;2022-12-01T02:29:35;69.80;;;47.67;;
13805;SDS011;6974;53.606;9.872;2022-12-01T02:32:17;66.37;;;45.63;;
13805;SDS011;6974;53.606;9.872;2022-12-01T02:34:53;68.00;;;45.67;;
13805;SDS011;6974;53.606;9.872;2022-12-01T02:37:27;68.43;;;45.53;;
13805;SDS011;6974;53.606;9.872;2022-12-01T02:40:01;68.97;;;46.73;;
13805;SDS011;6974;53.606;9.872;2022-12-01T02:42:36;66.30;;;43.83;;
13805;SDS011;6974;53.606;9.872;2022-12-01T02:45:17;70.83;;;48.33;;
13805;SDS011;6974;53.606;9.872;2022-12-01T02:47:55;64.00;;;44.83;;
13805;SDS011;6974;53.606;9.872;2022-12-01T02:50:26;71.47;;;47.87;;
13805;SDS011;6974;53.606;9.872;2022-12-01T02:52:55;67.67;;;45.37;;
13805;SDS011;6974;53.606;9.872;2022-12-01T02:55:22;71.70;;;46.00;;
13805;SDS011;6974;53.606;9.872;2022-12-01T02:57:50;68.93;;;47.13;;
13805;SDS011;6974;53.606;9.872;2022-12-01T03:00:17;66.27;;;46.47;;
13805;SDS011;6974;53.606;9.872;2022-12-01T03:02:48;68.00;;;47.37;;
13805;SDS011;6974;53.606;9.872;2022-12-01T03:05:37;71.40;;;48.63;;
13805;SDS011;6974;53.606;9.872;2022-12-01T03:08:14;75.07;;;46.93;;
13805;SDS011;6974;53.606;9.872;2022-12-01T03:10:50;71.53;;;47.30;;
13805;SDS011;6974;53.606;9.872;2022-12-01T03:13:21;64.03;;;45.07;;
13805;SDS011;6974;53.606;9.872;2022-12-01T03:15:59;75.37;;;46.97;;
13805;SDS011;6974;53.606;9.872;2022-12-01T03:18:33;67.50;;;47.67;;
13805;SDS011;6974;53.606;9.872;2022-12-01T03:21:07;72.13;;;47.97;;
13805;SDS011;6974;53.606;9.872;2022-12-01T03:23:39;74.77;;;47.73;;
13805;SDS011;6974;53.606;9.872;2022-12-01T03:26:10;70.27;;;47.63;;
13805;SDS011;6974;53.606;9.872;2022-12-01T03:28:42;74.37;;;47.70;;
13805;SDS011;6974;53.606;9.872;2022-12-01T03:31:12;72.27;;;46.30;;
13805;SDS011;6974;53.606;9.872;2022-12-01T03:33:43;73.87;;;46.67;;
13805;SDS011;6974;53.606;9.872;2022-12-01T03:36:18;76.87;;;48.37;;
13805;SDS011;6974;53.606;9.872;2022-12-01T03:38:48;76.80;;;48.53;;
13805;SDS011;6974;53.606;9.872;2022-12-01T03:41:21;72.30;;;46.23;;
13805;SDS011;6974;53.606;9.872;2022-12-01T03:43:54;76.20;;;48.40;;
13805;SDS011;6974;53.606;9.872;2022-12-01T03:46:30;74.90;;;47.93;;
13805;SDS011;6974;53.606;9.872;2022-12-01T03:49:05;74.27;;;48.23;;
13805;SDS011;6974;53.606;9.872;2022-12-01T03:51:38;76.23;;;48.37;;
13805;SDS011;6974;53.606;9.872;2022-12-01T03:54:12;73.93;;;48.90;;
13805;SDS011;6974;53.606;9.872;2022-12-01T03:56:46;77.07;;;49.37;;
13805;SDS011;6974;53.606;9.872;2022-12-01T03:59:17;76.83;;;48.03;;
13805;SDS011;6974;53.606;9.872;2022-12-01T04:01:47;76.03;;;48.80;;
13805;SDS011;6974;53.606;9.872;2022-12-01T04:04:15;77.63;;;48.23;;
13805;SDS011;6974;53.606;9.872;2022-12-01T04:06:46;81.40;;;50.17;;
13805;SDS011;6974;53.606;9.872;2022-12-01T04:09:15;77.57;;;48.30;;
13805;SDS011;6974;53.606;9.872;2022-12-01T04:11:42;77.87;;;49.10;;
13805;SDS011;6974;53.606;9.872;2022-12-01T04:14:26;76.17;;;49.07;;
13805;SDS011;6974;53.606;9.872;2022-12-01T04:16:53;79.07;;;48.80;;
13805;SDS011;6974;53.606;9.872;2022-12-01T04:19:20;80.27;;;50.00;;
13805;SDS011;6974;53.606;9.872;2022-12-01T04:21:48;75.83;;;48.53;;
13805;SDS011;6974;53.606;9.872;2022-12-01T04:24:15;79.83;;;51.10;;
13805;SDS011;6974;53.606;9.872;2022-12-01T04:26:42;84.80;;;50.13;;
13805;SDS011;6974;53.606;9.872;2022-12-01T04:29:10;81.47;;;50.80;;
13805;SDS011;6974;53.606;9.872;2022-12-01T04:31:38;86.40;;;52.63;;
13805;SDS011;6974;53.606;9.872;2022-12-01T04:34:05;80.67;;;50.40;;
13805;SDS011;6974;53.606;9.872;2022-12-01T04:36:32;82.57;;;49.63;;
13805;SDS011;6974;53.606;9.872;2022-12-01T04:39:02;82.50;;;50.23;;
13805;SDS011;6974;53.606;9.872;2022-12-01T04:41:29;81.57;;;49.83;;
13805;SDS011;6974;53.606;9.872;2022-12-01T04:43:56;86.80;;;51.70;;
13805;SDS011;6974;53.606;9.872;2022-12-01T04:46:23;75.77;;;48.13;;
13805;SDS011;6974;53.606;9.872;2022-12-01T04:48:50;83.93;;;50.53;;
13805;SDS011;6974;53.606;9.872;2022-12-01T04:51:17;82.07;;;51.57;;
13805;SDS011;6974;53.606;9.872;2022-12-01T04:53:45;77.67;;;50.07;;
13805;SDS011;6974;53.606;9.872;2022-12-01T04:56:13;83.10;;;50.53;;
13805;SDS011;6974;53.606;9.872;2022-12-01T04:58:40;77.17;;;48.37;;
13805;SDS011;6974;53.606;9.872;2022-12-01T05:01:07;80.43;;;49.30;;
13805;SDS011;6974;53.606;9.872;2022-12-01T05:03:37;83.73;;;50.07;;
13805;SDS011;6974;53.606;9.872;2022-12-01T05:06:06;79.17;;;48.57;;
13805;SDS011;6974;53.606;9.872;2022-12-01T05:08:34;83.77;;;50.33;;
13805;SDS011;6974;53.606;9.872;2022-12-01T05:11:02;82.47;;;49.30;;
13805;SDS011;6974;53.606;9.872;2022-12-01T05:13:31;80.63;;;49.77;;
13805;SDS011;6974;53.606;9.872;2022-12-01T05:16:03;80.37;;;49.10;;
13805;SDS011;6974;53.606;9.872;2022-12-01T05:18:31;73.47;;;46.37;;
13805;SDS011;6974;53.606;9.872;2022-12-01T05:20:58;79.90;;;49.13;;
13805;SDS011;6974;53.606;9.872;2022-12-01T05:23:24;74.60;;;47.57;;
13805;SDS011;6974;53.606;9.872;2022-12-01T05:25:52;81.67;;;50.20;;
13805;SDS011;6974;53.606;9.872;2022-12-01T05:28:19;81.07;;;49.83;;
13805;SDS011;6974;53.606;9.872;2022-12-01T05:30:48;79.60;;;49.23;;
13805;SDS011;6974;53.606;9.872;2022-12-01T05:33:16;78.07;;;49.27;;
13805;SDS011;6974;53.606;9.872;2022-12-01T05:35:43;86.17;;;51.43;;
13805;SDS011;6974;53.606;9.872;2022-12-01T05:38:10;81.70;;;51.07;;
13805;SDS011;6974;53.606;9.872;2022-12-01T05:40:36;78.97;;;49.63;;
13805;SDS011;6974;53.606;9.872;2022-12-01T05:43:03;82.23;;;49.80;;
13805;SDS011;6974;53.606;9.872;2022-12-01T05:45:31;81.17;;;51.07;;
13805;SDS011;6974;53.606;9.872;2022-12-01T05:48:00;82.10;;;50.13;;
13805;SDS011;6974;53.606;9.872;2022-12-01T05:50:28;74.97;;;48.80;;
13805;SDS011;6974;53.606;9.872;2022-12-01T05:52:56;87.47;;;52.23;;
13805;SDS011;6974;53.606;9.872;2022-12-01T05:55:23;82.60;;;47.63;;
13805;SDS011;6974;53.606;9.872;2022-12-01T05:57:50;81.63;;;47.80;;
13805;SDS011;6974;53.606;9.872;2022-12-01T06:00:17;74.67;;;47.40;;
13805;SDS011;6974;53.606;9.872;2022-12-01T06:02:45;82.23;;;49.03;;
13805;SDS011;6974;53.606;9.872;2022-12-01T06:05:13;86.33;;;49.40;;
13805;SDS011;6974;53.606;9.872;2022-12-01T06:07:40;82.73;;;48.47;;
13805;SDS011;6974;53.606;9.872;2022-12-01T06:10:07;78.50;;;48.07;;
13805;SDS011;6974;53.606;9.872;2022-12-01T06:12:35;79.80;;;48.50;;
13805;SDS011;6974;53.606;9.872;2022-12-01T06:15:02;81.93;;;49.07;;
13805;SDS011;6974;53.606;9.872;2022-12-01T06:17:30;81.83;;;48.33;;
13805;SDS011;6974;53.606;9.872;2022-12-01T06:19:57;83.13;;;50.97;;
13805;SDS011;6974;53.606;9.872;2022-12-01T06:22:25;79.83;;;49.03;;
13805;SDS011;6974;53.606;9.872;2022-12-01T06:24:52;82.30;;;47.60;;
13805;SDS011;6974;53.606;9.872;2022-12-01T06:27:19;74.13;;;45.67;;
13805;SDS011;6974;53.606;9.872;2022-12-01T06:29:45;78.77;;;47.00;;
13805;SDS011;6974;53.606;9.872;2022-12-01T06:32:13;78.57;;;47.90;;
13805;SDS011;6974;53.606;9.872;2022-12-01T06:34:40;80.03;;;49.20;;
13805;SDS011;6974;53.606;9.872;2022-12-01T06:37:07;82.23;;;49.73;;
13805;SDS011;6974;53.606;9.872;2022-12-01T06:39:36;80.37;;;47.70;;
13805;SDS011;6974;53.606;9.872;2022-12-01T06:42:03;82.47;;;48.63;;
13805;SDS011;6974;53.606;9.872;2022-12-01T06:44:30;83.37;;;49.17;;
13805;SDS011;6974;53.606;9.872;2022-12-01T06:46:57;80.83;;;47.73;;
13805;SDS011;6974;53.606;9.872;2022-12-01T06:49:24;81.47;;;48.07;;
13805;SDS011;6974;53.606;9.872;2022-12-01T06:51:51;85.87;;;48.97;;
13805;SDS011;6974;53.606;9.872;2022-12-01T06:54:18;82.10;;;49.20;;
13805;SDS011;6974;53.606;9.872;2022-12-01T06:56:46;76.97;;;47.40;;
13805;SDS011;6974;53.606;9.872;2022-12-01T06:59:13;89.07;;;51.00;;
13805;SDS011;6974;53.606;9.872;2022-12-01T07:01:40;78.73;;;47.93;;
13805;SDS011;6974;53.606;9.872;2022-12-01T07:04:07;79.87;;;48.07;;
13805;SDS011;6974;53.606;9.872;2022-12-01T07:06:34;77.83;;;48.77;;
13805;SDS011;6974;53.606;9.872;2022-12-01T07:09:00;79.03;;;48.23;;
13805;SDS011;6974;53.606;9.872;2022-12-01T07:11:27;80.07;;;48.00;;
13805;SDS011;6974;53.606;9.872;2022-12-01T07:13:57;84.47;;;49.50;;
13805;SDS011;6974;53.606;9.872;2022-12-01T07:16:24;80.97;;;49.07;;
13805;SDS011;6974;53.606;9.872;2022-12-01T07:18:51;83.10;;;49.17;;
13805;SDS011;6974;53.606;9.872;2022-12-01T07:21:18;82.07;;;48.17;;
13805;SDS011;6974;53.606;9.872;2022-12-01T07:23:45;79.43;;;50.00;;
13805;SDS011;6974;53.606;9.872;2022-12-01T07:26:12;82.47;;;49.60;;
13805;SDS011;6974;53.606;9.872;2022-12-01T07:28:40;82.37;;;48.27;;
13805;SDS011;6974;53.606;9.872;2022-12-01T07:31:10;90.17;;;50.47;;
13805;SDS011;6974;53.606;9.872;2022-12-01T07:33:38;84.00;;;48.07;;
13805;SDS011;6974;53.606;9.872;2022-12-01T07:36:06;86.80;;;50.33;;
13805;SDS011;6974;53.606;9.872;2022-12-01T07:38:34;83.70;;;48.67;;
13805;SDS011;6974;53.606;9.872;2022-12-01T07:41:01;85.90;;;48.87;;
13805;SDS011;6974;53.606;9.872;2022-12-01T07:43:29;87.33;;;49.03;;
13805;SDS011;6974;53.606;9.872;2022-12-01T07:46:01;87.57;;;50.17;;
13805;SDS011;6974;53.606;9.872;2022-12-01T07:48:31;86.23;;;49.23;;
13805;SDS011;6974;53.606;9.872;2022-12-01T07:50:58;84.67;;;49.50;;
13805;SDS011;6974;53.606;9.872;2022-12-01T07:53:25;78.80;;;47.80;;
13805;SDS011;6974;53.606;9.872;2022-12-01T07:55:52;77.80;;;46.67;;
13805;SDS011;6974;53.606;9.872;2022-12-01T07:58:19;80.77;;;49.43;;
13805;SDS011;6974;53.606;9.872;2022-12-01T08:00:46;78.03;;;47.90;;
13805;SDS011;6974;53.606;9.872;2022-12-01T08:03:13;81.93;;;48.67;;
13805;SDS011;6974;53.606;9.872;2022-12-01T08:05:41;78.07;;;48.53;;
13805;SDS011;6974;53.606;9.872;2022-12-01T08:08:08;79.37;;;47.53;;
13805;SDS011;6974;53.606;9.872;2022-12-01T08:10:35;83.77;;;48.53;;
13805;SDS011;6974;53.606;9.872;2022-12-01T08:13:02;84.03;;;49.27;;
13805;SDS011;6974;53.606;9.872;2022-12-01T08:15:29;78.37;;;47.27;;
13805;SDS011;6974;53.606;9.872;2022-12-01T08:17:59;88.13;;;50.37;;
13805;SDS011;6974;53.606;9.872;2022-12-01T08:20:26;80.33;;;47.07;;
13805;SDS011;6974;53.606;9.872;2022-12-01T08:22:54;78.57;;;46.63;;
13805;SDS011;6974;53.606;9.872;2022-12-01T08:25:25;79.20;;;47.27;;
13805;SDS011;6974;53.606;9.872;2022-12-01T08:27:52;79.73;;;47.83;;
13805;SDS011;6974;53.606;9.872;2022-12-01T08:30:19;82.00;;;46.93;;
13805;SDS011;6974;53.606;9.872;2022-12-01T08:32:46;81.33;;;47.07;;
13805;SDS011;6974;53.606;9.872;2022-12-01T08:35:13;77.43;;;45.70;;
13805;SDS011;6974;53.606;9.872;2022-12-01T08:37:40;74.40;;;44.70;;
13805;SDS011;6974;53.606;9.872;2022-12-01T08:40:09;77.27;;;46.27;;
13805;SDS011;6974;53.606;9.872;2022-12-01T08:42:36;73.37;;;45.73;;
13805;SDS011;6974;53.606;9.872;2022-12-01T08:45:03;74.30;;;44.40;;
13805;SDS011;6974;53.606;9.872;2022-12-01T08:47:31;76.13;;;44.33;;
13805;SDS011;6974;53.606;9.872;2022-12-01T08:49:58;76.33;;;44.70;;
13805;SDS011;6974;53.606;9.872;2022-12-01T08:52:25;74.23;;;44.13;;
13805;SDS011;6974;53.606;9.872;2022-12-01T08:54:56;71.03;;;43.30;;
13805;SDS011;6974;53.606;9.872;2022-12-01T08:57:25;69.97;;;41.80;;
13805;SDS011;6974;53.606;9.872;2022-12-01T08:59:54;68.10;;;41.53;;
13805;SDS011;6974;53.606;9.872;2022-12-01T09:02:21;71.23;;;41.60;;
13805;SDS011;6974;53.606;9.872;2022-12-01T09:04:48;65.90;;;40.57;;
13805;SDS011;6974;53.606;9.872;2022-12-01T09:07:16;69.93;;;42.13;;
13805;SDS011;6974;53.606;9.872;2022-12-01T09:09:45;67.00;;;40.47;;
13805;SDS011;6974;53.606;9.872;2022-12-01T09:12:12;69.93;;;42.67;;
13805;SDS011;6974;53.606;9.872;2022-12-01T09:14:42;66.60;;;41.77;;
13805;SDS011;6974;53.606;9.872;2022-12-01T09:17:12;69.73;;;40.93;;
13805;SDS011;6974;53.606;9.872;2022-12-01T09:19:39;71.07;;;43.00;;
13805;SDS011;6974;53.606;9.872;2022-12-01T09:22:06;70.20;;;43.43;;
13805;SDS011;6974;53.606;9.872;2022-12-01T09:24:33;71.43;;;43.70;;
13805;SDS011;6974;53.606;9.872;2022-12-01T09:27:01;76.70;;;44.17;;
13805;SDS011;6974;53.606;9.872;2022-12-01T09:29:28;71.80;;;42.57;;
13805;SDS011;6974;53.606;9.872;2022-12-01T09:31:57;73.63;;;42.93;;
13805;SDS011;6974;53.606;9.872;2022-12-01T09:34:25;69.20;;;42.00;;
13805;SDS011;6974;53.606;9.872;2022-12-01T09:36:53;75.10;;;44.33;;
13805;SDS011;6974;53.606;9.872;2022-12-01T09:39:20;70.77;;;42.50;;
13805;SDS011;6974;53.606;9.872;2022-12-01T09:41:48;71.20;;;43.37;;
13805;SDS011;6974;53.606;9.872;2022-12-01T09:44:22;68.53;;;41.87;;
13805;SDS011;6974;53.606;9.872;2022-12-01T09:46:59;71.10;;;41.40;;
13805;SDS011;6974;53.606;9.872;2022-12-01T09:49:37;71.77;;;42.37;;
13805;SDS011;6974;53.606;9.872;2022-12-01T09:52:09;64.30;;;39.60;;
13805;SDS011;6974;53.606;9.872;2022-12-01T09:54:38;65.73;;;40.00;;
13805;SDS011;6974;53.606;9.872;2022-12-01T09:57:05;69.03;;;42.17;;
13805;SDS011;6974;53.606;9.872;2022-12-01T09:59:38;68.23;;;40.27;;
13805;SDS011;6974;53.606;9.872;2022-12-01T10:02:13;62.70;;;40.13;;
13805;SDS011;6974;53.606;9.872;2022-12-01T10:04:50;59.27;;;37.70;;
13805;SDS011;6974;53.606;9.872;2022-12-01T10:07:21;60.87;;;37.27;;
13805;SDS011;6974;53.606;9.872;2022-12-01T10:09:51;61.57;;;37.77;;
13805;SDS011;6974;53.606;9.872;2022-12-01T10:12:23;57.47;;;35.77;;
13805;SDS011;6974;53.606;9.872;2022-12-01T10:14:53;55.33;;;33.70;;
13805;SDS011;6974;53.606;9.872;2022-12-01T10:17:30;55.03;;;33.43;;
13805;SDS011;6974;53.606;9.872;2022-12-01T10:20:08;51.43;;;30.07;;
13805;SDS011;6974;53.606;9.872;2022-12-01T10:22:54;51.33;;;30.83;;
13805;SDS011;6974;53.606;9.872;2022-12-01T10:25:43;47.10;;;27.93;;
13805;SDS011;6974;53.606;9.872;2022-12-01T10:28:30;49.13;;;28.33;;
13805;SDS011;6974;53.606;9.872;2022-12-01T10:31:19;46.47;;;27.67;;
13805;SDS011;6974;53.606;9.872;2022-12-01T10:33:57;43.60;;;27.23;;
13805;SDS011;6974;53.606;9.872;2022-12-01T10:36:26;49.10;;;29.07;;
13805;SDS011;6974;53.606;9.872;2022-12-01T10:38:55;48.33;;;30.20;;
13805;SDS011;6974;53.606;9.872;2022-12-01T10:41:23;48.67;;;30.00;;
13805;SDS011;6974;53.606;9.872;2022-12-01T10:43:55;52.43;;;29.03;;
13805;SDS011;6974;53.606;9.872;2022-12-01T10:46:28;48.20;;;28.87;;
13805;SDS011;6974;53.606;9.872;2022-12-01T10:49:07;45.33;;;28.10;;
13805;SDS011;6974;53.606;9.872;2022-12-01T10:51:45;49.57;;;28.87;;
13805;SDS011;6974;53.606;9.872;2022-12-01T10:54:14;45.30;;;27.00;;
13805;SDS011;6974;53.606;9.872;2022-12-01T10:56:44;49.63;;;27.90;;
13805;SDS011;6974;53.606;9.872;2022-12-01T10:59:20;46.90;;;27.27;;
13805;SDS011;6974;53.606;9.872;2022-12-01T11:01:52;48.53;;;28.27;;
13805;SDS011;6974;53.606;9.872;2022-12-01T11:04:26;47.17;;;28.70;;
13805;SDS011;6974;53.606;9.872;2022-12-01T11:07:13;49.43;;;28.57;;
13805;SDS011;6974;53.606;9.872;2022-12-01T11:09:43;50.63;;;29.80;;
13805;SDS011;6974;53.606;9.872;2022-12-01T11:12:14;47.50;;;27.70;;
13805;SDS011;6974;53.606;9.872;2022-12-01T11:14:45;48.80;;;28.63;;
13805;SDS011;6974;53.606;9.872;2022-12-01T11:17:16;49.40;;;27.57;;
13805;SDS011;6974;53.606;9.872;2022-12-01T11:19:56;51.60;;;28.77;;
13805;SDS011;6974;53.606;9.872;2022-12-01T11:22:24;49.47;;;26.73;;
13805;SDS011;6974;53.606;9.872;2022-12-01T11:25:01;47.70;;;26.60;;
13805;SDS011;6974;53.606;9.872;2022-12-01T11:27:32;45.67;;;25.60;;
13805;SDS011;6974;53.606;9.872;2022-12-01T11:30:02;46.73;;;25.87;;
13805;SDS011;6974;53.606;9.872;2022-12-01T11:32:33;46.33;;;26.03;;
13805;SDS011;6974;53.606;9.872;2022-12-01T11:35:04;44.27;;;24.37;;
13805;SDS011;6974;53.606;9.872;2022-12-01T11:37:42;40.43;;;22.67;;
13805;SDS011;6974;53.606;9.872;2022-12-01T11:40:14;44.13;;;25.43;;
13805;SDS011;6974;53.606;9.872;2022-12-01T11:42:48;44.87;;;25.23;;
13805;SDS011;6974;53.606;9.872;2022-12-01T11:45:21;45.50;;;26.07;;
13805;SDS011;6974;53.606;9.872;2022-12-01T11:48:04;42.70;;;24.73;;
13805;SDS011;6974;53.606;9.872;2022-12-01T11:50:35;43.70;;;25.03;;
13805;SDS011;6974;53.606;9.872;2022-12-01T11:53:08;44.90;;;25.57;;
13805;SDS011;6974;53.606;9.872;2022-12-01T11:55:53;45.83;;;26.57;;
13805;SDS011;6974;53.606;9.872;2022-12-01T11:58:40;49.17;;;26.63;;
13805;SDS011;6974;53.606;9.872;2022-12-01T12:01:10;45.07;;;25.83;;
13805;SDS011;6974;53.606;9.872;2022-12-01T12:03:47;45.73;;;25.57;;
13805;SDS011;6974;53.606;9.872;2022-12-01T12:06:21;48.77;;;25.20;;
13805;SDS011;6974;53.606;9.872;2022-12-01T12:09:01;49.27;;;26.03;;
13805;SDS011;6974;53.606;9.872;2022-12-01T12:11:43;49.10;;;26.90;;
13805;SDS011;6974;53.606;9.872;2022-12-01T12:14:23;48.67;;;26.77;;
13805;SDS011;6974;53.606;9.872;2022-12-01T12:17:08;49.13;;;26.37;;
13805;SDS011;6974;53.606;9.872;2022-12-01T12:19:57;54.47;;;26.80;;
13805;SDS011;6974;53.606;9.872;2022-12-01T12:22:47;50.33;;;27.07;;
13805;SDS011;6974;53.606;9.872;2022-12-01T12:25:26;48.57;;;26.10;;
13805;SDS011;6974;53.606;9.872;2022-12-01T12:28:04;56.47;;;26.33;;
13805;SDS011;6974;53.606;9.872;2022-12-01T12:30:42;46.77;;;25.27;;
13805;SDS011;6974;53.606;9.872;2022-12-01T12:33:22;53.23;;;26.13;;
13805;SDS011;6974;53.606;9.872;2022-12-01T12:36:04;49.37;;;26.50;;
13805;SDS011;6974;53.606;9.872;2022-12-01T12:38:44;50.93;;;27.20;;
13805;SDS011;6974;53.606;9.872;2022-12-01T12:41:17;53.23;;;27.00;;
13805;SDS011;6974;53.606;9.872;2022-12-01T12:43:55;55.10;;;25.77;;
13805;SDS011;6974;53.606;9.872;2022-12-01T12:46:34;43.63;;;25.10;;
13805;SDS011;6974;53.606;9.872;2022-12-01T12:49:14;50.27;;;25.63;;
13805;SDS011;6974;53.606;9.872;2022-12-01T12:51:52;44.97;;;25.40;;
13805;SDS011;6974;53.606;9.872;2022-12-01T12:54:28;45.13;;;25.33;;
13805;SDS011;6974;53.606;9.872;2022-12-01T12:56:59;43.80;;;22.97;;
13805;SDS011;6974;53.606;9.872;2022-12-01T12:59:30;45.47;;;24.27;;
13805;SDS011;6974;53.606;9.872;2022-12-01T13:02:08;39.30;;;23.03;;
13805;SDS011;6974;53.606;9.872;2022-12-01T13:04:40;45.27;;;23.97;;
13805;SDS011;6974;53.606;9.872;2022-12-01T13:07:16;43.47;;;23.73;;
13805;SDS011;6974;53.606;9.872;2022-12-01T13:09:59;41.03;;;23.13;;
13805;SDS011;6974;53.606;9.872;2022-12-01T13:12:36;38.10;;;21.87;;
13805;SDS011;6974;53.606;9.872;2022-12-01T13:15:12;35.10;;;19.90;;
13805;SDS011;6974;53.606;9.872;2022-12-01T13:17:42;40.47;;;22.23;;
13805;SDS011;6974;53.606;9.872;2022-12-01T13:20:12;39.23;;;22.03;;
13805;SDS011;6974;53.606;9.872;2022-12-01T13:22:41;38.00;;;21.80;;
13805;SDS011;6974;53.606;9.872;2022-12-01T13:25:12;39.80;;;21.70;;
13805;SDS011;6974;53.606;9.872;2022-12-01T13:27:42;36.67;;;20.37;;
13805;SDS011;6974;53.606;9.872;2022-12-01T13:30:18;39.60;;;20.90;;
13805;SDS011;6974;53.606;9.872;2022-12-01T13:32:47;35.20;;;21.87;;
13805;SDS011;6974;53.606;9.872;2022-12-01T13:35:25;37.10;;;21.47;;
13805;SDS011;6974;53.606;9.872;2022-12-01T13:37:55;37.50;;;20.13;;
13805;SDS011;6974;53.606;9.872;2022-12-01T13:40:50;42.13;;;22.57;;
13805;SDS011;6974;53.606;9.872;2022-12-01T13:46:30;43.00;;;20.67;;
13805;SDS011;6974;53.606;9.872;2022-12-01T13:49:30;41.90;;;20.77;;
13805;SDS011;6974;53.606;9.872;2022-12-01T13:55:23;37.43;;;20.03;;
13805;SDS011;6974;53.606;9.872;2022-12-01T14:10:20;39.23;;;20.93;;
13805;SDS011;6974;53.606;9.872;2022-12-01T14:12:50;39.03;;;21.60;;
13805;SDS011;6974;53.606;9.872;2022-12-01T14:15:26;46.70;;;23.33;;
13805;SDS011;6974;53.606;9.872;2022-12-01T14:17:57;47.57;;;26.17;;
13805;SDS011;6974;53.606;9.872;2022-12-01T14:20:27;43.83;;;23.87;;
13805;SDS011;6974;53.606;9.872;2022-12-01T14:23:02;38.83;;;20.33;;
13805;SDS011;6974;53.606;9.872;2022-12-01T14:25:55;38.50;;;20.10;;
13805;SDS011;6974;53.606;9.872;2022-12-01T14:34:51;43.67;;;19.90;;
13805;SDS011;6974;53.606;9.872;2022-12-01T14:37:38;44.60;;;20.77;;
13805;SDS011;6974;53.606;9.872;2022-12-01T14:40:12;41.30;;;20.03;;
13805;SDS011;6974;53.606;9.872;2022-12-01T14:42:47;41.37;;;18.57;;
13805;SDS011;6974;53.606;9.872;2022-12-01T14:45:38;38.87;;;18.40;;
13805;SDS011;6974;53.606;9.872;2022-12-01T14:48:11;43.67;;;20.00;;
13805;SDS011;6974;53.606;9.872;2022-12-01T14:50:48;42.23;;;20.10;;
13805;SDS011;6974;53.606;9.872;2022-12-01T14:53:19;44.67;;;19.93;;
13805;SDS011;6974;53.606;9.872;2022-12-01T14:55:51;38.00;;;18.83;;
13805;SDS011;6974;53.606;9.872;2022-12-01T14:58:21;40.07;;;19.50;;
13805;SDS011;6974;53.606;9.872;2022-12-01T15:01:01;38.33;;;19.03;;
13805;SDS011;6974;53.606;9.872;2022-12-01T15:03:34;38.40;;;19.77;;
13805;SDS011;6974;53.606;9.872;2022-12-01T15:06:04;40.67;;;19.73;;
13805;SDS011;6974;53.606;9.872;2022-12-01T15:08:31;35.37;;;19.40;;
13805;SDS011;6974;53.606;9.872;2022-12-01T15:11:02;39.00;;;21.90;;
13805;SDS011;6974;53.606;9.872;2022-12-01T15:13:31;34.37;;;18.07;;
13805;SDS011;6974;53.606;9.872;2022-12-01T15:16:11;34.27;;;19.10;;
13805;SDS011;6974;53.606;9.872;2022-12-01T15:18:43;38.50;;;19.70;;
13805;SDS011;6974;53.606;9.872;2022-12-01T15:21:11;34.97;;;18.37;;
13805;SDS011;6974;53.606;9.872;2022-12-01T15:23:51;39.57;;;18.60;;
13805;SDS011;6974;53.606;9.872;2022-12-01T15:26:23;34.90;;;17.40;;
13805;SDS011;6974;53.606;9.872;2022-12-01T15:29:02;29.33;;;17.47;;